CAX5 weather

Likely Airport
Likely, British Columbia, Canada

Public forecast

Using degrees Celsius for public forecast. Weather courtesy of forecast.io.

METAR (pilot weather report)

Closest report is Williams Lake Airport, 33.0 nm (61.1 km) SW. Retrieved 2019/08/23 23:00 UTC (46 minutes ago):

CYWL 232300Z 14006KT 15SM FEW036 BKN220 19/11 A2980 RMK CU2CI3 SLP092 DENSITY ALT 4500FT

TAF (pilot weather forecast)

Closest forecast is Williams Lake Airport, 33.0 nm (61.1 km) SW. Retrieved 2019/08/23 19:42 UTC (4 hours ago):

TAF CYWL 231838Z 2319/2407 12010G20KT P6SM SCT030 OVC130 TEMPO 2319/2322 P6SM -RA BKN030 FM232200 12008KT P6SM BKN080 BECMG 2402/2404 VRB03KT RMK NXT FCST BY 240100Z